Time;durP1;ratioP1;P1;durP2;ratioP2;P2;SDS_P1;SDS_P2;PMS_P1;PMS_P2;Temp;Humidity;BMP_temperature;BMP_pressure;BME280_temperature;BME280_humidity;BME280_pressure;Samples;Min_cycle;Max_cycle;Signal;HPM_P1;HPM_P2
2023/01/16 00:02:15;;;;;;;21.02;12.32;;;;;;;0.71;100.00;62071.75;4993753;28;20234;-80
2023/01/16 00:04:43;;;;;;;22.95;14.18;;;;;;;0.41;100.00;62043.00;4993749;28;20232;-81
2023/01/16 00:07:11;;;;;;;23.42;13.60;;;;;;;0.81;100.00;62087.00;4992524;28;20287;-79
2023/01/16 00:09:40;;;;;;;20.50;11.77;;;;;;;0.66;100.00;62071.63;4995085;28;20184;-79
2023/01/16 00:12:08;;;;;;;17.67;10.75;;;;;;;0.90;100.00;62093.22;4985452;28;20229;-79
2023/01/16 00:14:35;;;;;;;16.13;9.23;;;;;;;0.82;100.00;62085.03;4989393;28;20295;-79
2023/01/16 00:17:02;;;;;;;12.55;8.98;;;;;;;0.94;100.00;62095.34;4994111;28;20236;-79
2023/01/16 00:19:29;;;;;;;17.23;9.60;;;;;;;0.84;100.00;62082.06;4987782;28;20502;-80
2023/01/16 00:21:56;;;;;;;15.70;10.35;;;;;;;0.97;100.00;62095.41;4989159;28;20266;-79
2023/01/16 00:24:25;;;;;;;16.40;9.43;;;;;;;0.92;100.00;62093.28;4992533;28;20260;-79
2023/01/16 00:26:52;;;;;;;14.93;9.20;;;;;;;0.99;100.00;62099.94;4992089;28;20231;-79
2023/01/16 00:29:19;;;;;;;16.85;8.75;;;;;;;0.89;100.00;62090.22;4989284;28;20500;-80
2023/01/16 00:31:46;;;;;;;13.43;7.70;;;;;;;0.95;100.00;62098.88;4985156;28;20239;-79
2023/01/16 00:34:13;;;;;;;13.60;8.23;;;;;;;0.93;100.00;62096.31;4992013;28;20310;-79
2023/01/16 00:36:40;;;;;;;12.32;7.57;;;;;;;0.78;100.00;62083.94;4979440;28;20234;-80
2023/01/16 00:39:07;;;;;;;12.43;7.93;;;;;;;0.76;100.00;62084.38;4979107;28;20223;-80
2023/01/16 00:41:35;;;;;;;14.57;9.05;;;;;;;0.87;100.00;62090.16;4991874;28;20228;-80
2023/01/16 00:44:03;;;;;;;12.77;7.68;;;;;;;0.74;100.00;62077.31;4991996;28;20552;-79
2023/01/16 00:46:34;;;;;;;9.95;7.20;;;;;;;0.68;100.00;62073.16;4992305;28;20223;-79
2023/01/16 00:49:02;;;;;;;14.63;8.73;;;;;;;0.82;100.00;62085.03;4983511;28;20234;-79
2023/01/16 00:51:28;;;;;;;12.88;8.45;;;;;;;0.74;100.00;62079.81;4990426;28;20225;-79
2023/01/16 00:53:55;;;;;;;14.98;9.52;;;;;;;0.70;100.00;62078.25;4976034;29;20204;-79
2023/01/16 00:56:23;;;;;;;12.77;9.05;;;;;;;0.77;100.00;62077.91;4976269;29;20549;-79
2023/01/16 00:58:52;;;;;;;10.55;7.90;;;;;;;0.77;100.00;62079.91;4985505;28;20253;-79
2023/01/16 01:01:18;;;;;;;16.25;10.57;;;;;;;0.77;100.00;62082.41;4992707;28;20228;-79
2023/01/16 01:03:47;;;;;;;17.52;10.57;;;;;;;0.77;100.00;62077.91;4994731;28;20220;-78
2023/01/16 01:06:14;;;;;;;22.42;13.55;;;;;;;0.76;100.00;62079.38;4995639;28;20216;-80
2023/01/16 01:08:41;;;;;;;30.35;16.52;;;;;;;0.81;100.00;62084.00;4977866;28;20412;-80
2023/01/16 01:11:10;;;;;;;30.17;16.42;;;;;;;0.86;100.00;62092.13;4976627;28;20252;-79
2023/01/16 01:13:37;;;;;;;25.58;15.00;;;;;;;0.85;100.00;62083.09;4993935;28;20279;-79
2023/01/16 01:16:07;;;;;;;25.75;13.23;;;;;;;0.95;100.00;62098.34;4990954;28;20271;-79
2023/01/16 01:18:34;;;;;;;20.30;11.57;;;;;;;0.96;100.00;62097.41;4980481;28;20502;-79
2023/01/16 01:21:01;;;;;;;18.10;11.10;;;;;;;0.98;100.00;62099.44;4994221;28;20228;-79
2023/01/16 01:23:28;;;;;;;20.25;12.02;;;;;;;0.99;100.00;62097.44;4994497;28;20203;-79
2023/01/16 01:25:55;;;;;;;20.85;12.02;;;;;;;0.99;100.00;62099.94;4993998;28;20224;-79
2023/01/16 01:28:22;;;;;;;18.55;11.13;;;;;;;0.89;100.00;62092.72;4994492;28;20220;-79
2023/01/16 01:30:49;;;;;;;21.30;12.25;;;;;;;1.05;100.00;62109.13;4996094;28;20204;-79
2023/01/16 01:33:18;;;;;;;18.00;10.18;;;;;;;1.10;100.00;62113.75;4992273;28;20218;-78
2023/01/16 01:35:45;;;;;;;11.90;8.27;;;;;;;0.90;100.00;62093.75;4974373;28;20240;-79
2023/01/16 01:38:13;;;;;;;14.93;8.48;;;;;;;0.94;100.00;62099.84;4988044;28;20340;-78
2023/01/16 01:40:40;;;;;;;16.90;8.40;;;;;;;0.87;100.00;62090.66;4993520;28;20621;-79
2023/01/16 01:43:14;;;;;;;13.90;8.73;;;;;;;1.05;100.00;62108.63;4993152;28;20212;-79
2023/01/16 01:45:44;;;;;;;12.43;7.95;;;;;;;0.97;100.00;62098.41;4993924;28;20207;-79
2023/01/16 01:48:25;;;;;;;11.90;7.57;;;;;;;1.03;100.00;62104.06;4994977;28;20553;-81
2023/01/16 01:50:56;;;;;;;12.70;7.80;;;;;;;1.21;100.00;62125.03;4993759;28;20246;-80
2023/01/16 01:53:28;;;;;;;12.45;8.68;;;;;;;1.16;100.00;62122.41;4993522;28;20212;-80
2023/01/16 01:55:59;;;;;;;18.50;9.35;;;;;;;1.19;100.00;62123.00;4993693;28;20287;-79
2023/01/16 01:58:28;;;;;;;12.82;7.88;;;;;;;1.13;100.00;62114.31;4994225;28;20207;-79
2023/01/16 02:00:58;;;;;;;16.25;9.57;;;;;;;1.15;100.00;62119.41;4993791;28;20248;-79
2023/01/16 02:03:32;;;;;;;17.38;9.65;;;;;;;1.14;100.00;62120.88;4984252;28;20215;-79
2023/01/16 02:06:02;;;;;;;15.00;9.25;;;;;;;1.18;100.00;62119.97;4995129;28;20226;-79
2023/01/16 02:08:32;;;;;;;11.50;7.45;;;;;;;1.18;100.00;62119.97;4993966;28;20194;-79
2023/01/16 02:11:04;;;;;;;16.83;11.05;;;;;;;1.28;100.00;62134.22;4985954;28;20228;-80
2023/01/16 02:13:32;;;;;;;16.38;10.43;;;;;;;1.18;100.00;62119.44;4993860;28;20245;-80
2023/01/16 02:22:02;;;;;;;21.65;13.70;;;;;;;1.23;100.00;62124.56;4986308;28;20228;-79
2023/01/16 02:24:48;;;;;;;28.45;14.70;;;;;;;1.24;100.00;62125.59;4987367;28;20264;-79
2023/01/16 02:27:53;;;;;;;20.50;12.55;;;;;;;0.91;100.00;62094.25;4991964;28;20208;-78
2023/01/16 02:31:01;;;;;;;18.23;10.77;;;;;;;0.95;100.00;62098.34;4991551;28;20208;-79
2023/01/16 02:33:39;;;;;;;18.90;11.38;;;;;;;0.93;100.00;62096.31;4976379;28;20207;-78
2023/01/16 02:36:13;;;;;;;18.27;11.48;;;;;;;0.97;100.00;62100.41;5013138;28;20238;-79
2023/01/16 02:38:50;;;;;;;20.55;13.18;;;;;;;1.02;100.00;62103.53;4983150;28;20210;-80
2023/01/16 02:41:27;;;;;;;17.98;11.48;;;;;;;0.94;100.00;62100.34;4971127;29;20221;-81
2023/01/16 02:43:59;;;;;;;19.27;10.75;;;;;;;1.02;100.00;62108.56;4973646;29;20216;-81
2023/01/16 02:46:31;;;;;;;22.73;11.25;;;;;;;1.08;100.00;62112.22;4980660;28;20256;-79
2023/01/16 02:49:09;;;;;;;17.30;10.10;;;;;;;1.03;100.00;62107.09;4992029;28;20532;-80
2023/01/16 02:51:50;;;;;;;15.50;9.88;;;;;;;1.04;100.00;62105.59;4992497;28;20224;-80
2023/01/16 02:54:24;;;;;;;15.27;9.13;;;;;;;1.00;100.00;62101.00;4992797;28;20223;-80
2023/01/16 02:56:57;;;;;;;16.23;10.50;;;;;;;0.97;100.00;62098.41;4991852;28;20234;-78
2023/01/16 02:59:28;;;;;;;17.23;10.00;;;;;;;0.96;100.00;62096.88;4991417;28;20192;-79
2023/01/16 03:01:57;;;;;;;18.20;11.25;;;;;;;1.02;100.00;62101.03;4990516;28;20271;-78
2023/01/16 03:04:47;;;;;;;20.60;11.00;;;;;;;1.01;100.00;62109.53;4977372;28;20216;-79
2023/01/16 03:07:45;;;;;;;19.95;11.82;;;;;;;0.86;100.00;62089.63;4993011;28;20224;-81
2023/01/16 03:10:22;;;;;;;16.42;10.18;;;;;;;0.85;100.00;62088.09;4991433;28;20205;-78
2023/01/16 03:13:01;;;;;;;19.50;10.88;;;;;;;0.90;100.00;62086.22;4993254;28;20275;-79
2023/01/16 03:15:37;;;;;;;20.65;11.70;;;;;;;0.89;100.00;62090.22;4991746;28;20228;-81
2023/01/16 03:18:13;;;;;;;20.23;13.27;;;;;;;0.88;100.00;62094.19;4991384;28;20211;-80
2023/01/16 03:20:52;;;;;;;19.30;12.68;;;;;;;0.83;100.00;62081.03;4991544;28;20192;-80
2023/01/16 03:23:31;;;;;;;30.65;17.58;;;;;;;0.73;100.00;62070.78;4990503;28;20231;-81
2023/01/16 03:26:02;;;;;;;24.08;13.43;;;;;;;0.76;100.00;62081.38;4985145;28;20430;-80
2023/01/16 03:28:37;;;;;;;21.42;12.35;;;;;;;0.73;100.00;62073.81;4993354;28;20197;-79
2023/01/16 03:31:13;;;;;;;18.30;10.20;;;;;;;0.78;100.00;62080.91;4991954;28;20223;-79
2023/01/16 03:33:47;;;;;;;17.95;10.35;;;;;;;0.72;100.00;62072.78;4972298;29;20212;-80
2023/01/16 03:36:22;;;;;;;21.00;12.13;;;;;;;0.70;100.00;62070.72;4970961;28;20266;-79
2023/01/16 03:38:51;;;;;;;20.23;11.20;;;;;;;0.37;100.00;62039.41;4971349;29;20404;-79
2023/01/16 03:41:24;;;;;;;18.08;10.68;;;;;;;0.46;100.00;62048.63;4982859;28;20219;-79
2023/01/16 03:43:54;;;;;;;17.95;12.10;;;;;;;0.13;100.00;62014.81;4991257;28;20210;-79
2023/01/16 03:46:25;;;;;;;23.52;12.88;;;;;;;0.43;100.00;62045.53;4991347;28;20224;-80
2023/01/16 03:48:56;;;;;;;20.35;11.73;;;;;;;0.42;100.00;62044.53;4990950;28;20192;-79
2023/01/16 03:51:28;;;;;;;18.98;11.20;;;;;;;0.41;100.00;62043.00;4989077;28;20234;-79
2023/01/16 03:54:02;;;;;;;16.20;10.50;;;;;;;0.30;100.00;62029.19;4991965;28;20270;-79
2023/01/16 03:56:35;;;;;;;17.13;11.32;;;;;;;0.29;100.00;62028.69;4990128;28;20592;-79
2023/01/16 03:59:03;;;;;;;20.67;12.13;;;;;;;0.31;100.00;62033.25;4987697;28;20208;-80
2023/01/16 04:01:39;;;;;;;17.35;10.82;;;;;;;0.32;100.00;62031.78;4984652;28;20220;-79
2023/01/16 04:04:10;;;;;;;18.85;10.60;;;;;;;0.31;100.00;62027.72;4974992;28;20196;-80
2023/01/16 04:06:46;;;;;;;16.15;10.13;;;;;;;0.28;100.00;62029.66;4985166;28;20243;-79
2023/01/16 04:09:19;;;;;;;19.92;10.85;;;;;;;0.27;100.00;62028.63;4978908;28;20204;-80
2023/01/16 04:11:50;;;;;;;18.92;11.27;;;;;;;0.27;100.00;62023.63;4975863;28;20227;-79
2023/01/16 04:14:20;;;;;;;14.90;9.50;;;;;;;0.30;100.00;62029.19;4980511;28;20521;-79
2023/01/16 04:16:48;;;;;;;19.90;9.60;;;;;;;0.35;100.00;62039.84;4984106;28;20244;-79
2023/01/16 04:19:16;;;;;;;17.85;10.32;;;;;;;0.28;100.00;62035.16;4984069;28;20218;-78
2023/01/16 04:21:48;;;;;;;19.65;11.25;;;;;;;0.32;100.00;62024.25;4990973;28;20224;-80
2023/01/16 04:24:16;;;;;;;23.75;12.55;;;;;;;0.34;100.00;62036.31;4990222;28;20270;-79
2023/01/16 04:26:43;;;;;;;20.73;11.27;;;;;;;0.35;100.00;62037.34;4989217;28;20235;-79
2023/01/16 04:29:11;;;;;;;17.63;10.77;;;;;;;0.28;100.00;62030.16;4990928;28;20204;-80
2023/01/16 04:31:38;;;;;;;21.75;11.05;;;;;;;0.42;100.00;62044.53;4987556;28;20236;-79
2023/01/16 04:34:05;;;;;;;29.75;13.35;;;;;;;0.42;100.00;62041.50;4982678;28;20528;-79
2023/01/16 04:36:32;;;;;;;19.20;12.65;;;;;;;0.43;100.00;62050.53;4980409;28;20251;-80
2023/01/16 04:39:02;;;;;;;20.73;11.90;;;;;;;0.40;100.00;62042.47;4970830;28;20214;-79
2023/01/16 04:41:39;;;;;;;18.83;11.55;;;;;;;0.40;100.00;62044.47;4986434;28;20226;-79
2023/01/16 04:44:08;;;;;;;20.63;11.45;;;;;;;0.37;100.00;62039.41;4983038;28;20207;-81
2023/01/16 04:46:37;;;;;;;25.10;12.00;;;;;;;0.39;100.00;62040.94;4990755;28;20385;-79
2023/01/16 04:49:06;;;;;;;23.73;12.25;;;;;;;0.43;100.00;62042.53;4989669;28;20232;-80
2023/01/16 04:51:32;;;;;;;12.90;8.68;;;;;;;0.23;100.00;62022.53;4988412;28;20329;-79
2023/01/16 04:54:01;;;;;;;12.70;8.40;;;;;;;0.39;100.00;62041.44;4986969;28;20224;-79
2023/01/16 04:56:28;;;;;;;14.75;9.60;;;;;;;0.38;100.00;62037.41;4988663;28;20282;-79
2023/01/16 04:58:56;;;;;;;14.23;8.30;;;;;;;0.41;100.00;62048.00;4987536;28;20214;-79
2023/01/16 05:01:23;;;;;;;13.93;8.30;;;;;;;0.33;100.00;62034.78;4988238;28;20271;-80
2023/01/16 05:03:50;;;;;;;15.23;9.43;;;;;;;0.40;100.00;62039.47;4987843;28;20220;-79
2023/01/16 05:06:17;;;;;;;18.13;11.13;;;;;;;0.36;100.00;62033.38;4989512;28;20224;-79
2023/01/16 05:08:44;;;;;;;19.83;10.90;;;;;;;0.28;100.00;62027.16;4988200;28;20307;-79
2023/01/16 05:11:13;;;;;;;20.00;11.30;;;;;;;-0.03;100.00;61998.41;4989643;28;20227;-79
2023/01/16 05:13:40;;;;;;;16.30;9.35;;;;;;;0.30;100.00;62031.69;4989354;28;20269;-79
2023/01/16 05:16:08;;;;;;;16.80;10.40;;;;;;;0.31;100.00;62027.72;4989036;28;20235;-81
2023/01/16 05:18:35;;;;;;;18.40;11.23;;;;;;;0.28;100.00;62029.66;4989249;28;20224;-81
2023/01/16 05:21:04;;;;;;;16.60;9.75;;;;;;;0.26;100.00;62025.63;4991295;28;20232;-79
2023/01/16 05:23:33;;;;;;;13.75;9.73;;;;;;;0.16;100.00;62014.84;4987283;28;20211;-78
2023/01/16 05:25:59;;;;;;;18.13;10.90;;;;;;;0.23;100.00;62025.03;4989673;28;20234;-79
2023/01/16 05:28:28;;;;;;;19.75;11.25;;;;;;;0.19;100.00;62020.94;4987563;28;20208;-77
2023/01/16 05:30:56;;;;;;;21.80;12.88;;;;;;;0.22;100.00;62021.53;4987427;28;20220;-77
2023/01/16 05:33:23;;;;;;;22.67;12.00;;;;;;;0.17;100.00;62018.91;4987315;28;20192;-80
2023/01/16 05:35:50;;;;;;;13.85;9.65;;;;;;;0.22;100.00;62021.53;4986890;28;20240;-78
2023/01/16 05:38:18;;;;;;;24.13;14.65;;;;;;;0.23;100.00;62025.03;4989179;28;20212;-76
2023/01/16 05:40:45;;;;;;;24.23;14.57;;;;;;;0.23;100.00;62022.03;4990866;28;20210;-77
2023/01/16 05:43:13;;;;;;;27.60;13.68;;;;;;;0.24;100.00;62023.06;4990619;28;20204;-78
2023/01/16 05:45:41;;;;;;;20.75;12.95;;;;;;;0.26;100.00;62028.13;4989838;28;20444;-79
2023/01/16 05:48:08;;;;;;;23.88;13.75;;;;;;;0.25;100.00;62029.59;4990066;28;20251;-78
2023/01/16 05:50:35;;;;;;;15.82;11.00;;;;;;;0.18;100.00;62017.41;4989514;28;20251;-79
2023/01/16 05:53:02;;;;;;;23.80;14.10;;;;;;;0.31;100.00;62030.25;4990296;28;20232;-79
2023/01/16 05:55:29;;;;;;;21.73;13.60;;;;;;;0.33;100.00;62032.78;4976086;28;20473;-79
2023/01/16 05:57:57;;;;;;;20.25;13.07;;;;;;;0.34;100.00;62033.81;4973340;28;20209;-78
2023/01/16 06:00:24;;;;;;;25.55;13.43;;;;;;;0.34;100.00;62035.81;4991451;28;20207;-79
2023/01/16 06:02:52;;;;;;;23.92;13.52;;;;;;;0.27;100.00;62031.13;4989803;28;20231;-78
2023/01/16 06:05:20;;;;;;;24.02;15.07;;;;;;;0.37;100.00;62041.91;4990696;28;20315;-78
2023/01/16 06:07:47;;;;;;;25.27;15.77;;;;;;;0.40;100.00;62041.97;4988995;28;20335;-79
2023/01/16 06:10:15;;;;;;;24.95;15.10;;;;;;;0.38;100.00;62042.91;4988489;28;20247;-80
2023/01/16 06:12:42;;;;;;;28.55;15.77;;;;;;;0.37;100.00;62036.38;4989035;28;20247;-78
2023/01/16 06:15:09;;;;;;;29.02;15.60;;;;;;;0.37;100.00;62039.41;4988265;28;20259;-79
2023/01/16 06:17:36;;;;;;;24.55;14.35;;;;;;;0.39;100.00;62040.94;4990410;28;20246;-79
2023/01/16 06:20:05;;;;;;;19.45;11.30;;;;;;;0.34;100.00;62028.31;4991055;28;20208;-78
2023/01/16 06:22:32;;;;;;;18.85;11.32;;;;;;;0.38;100.00;62040.41;4990476;28;20228;-79
2023/01/16 06:25:00;;;;;;;18.33;12.07;;;;;;;0.41;100.00;62037.97;4991608;28;20219;-79
2023/01/16 06:27:27;;;;;;;20.98;10.77;;;;;;;0.42;100.00;62042.03;4989397;28;20499;-78
2023/01/16 06:29:54;;;;;;;18.02;11.65;;;;;;;0.38;100.00;62040.41;4990344;28;20216;-78
2023/01/16 06:32:21;;;;;;;29.15;17.40;;;;;;;0.43;100.00;62050.03;4989824;28;20471;-78
2023/01/16 06:34:48;;;;;;;22.05;12.90;;;;;;;0.26;100.00;62025.13;4990540;28;20237;-79
2023/01/16 06:37:17;;;;;;;22.98;14.25;;;;;;;0.41;100.00;62043.50;4990507;28;20278;-80
2023/01/16 06:39:44;;;;;;;23.33;13.52;;;;;;;0.54;100.00;62054.31;4990342;28;20235;-79
2023/01/16 06:42:11;;;;;;;26.85;15.88;;;;;;;0.58;100.00;62058.44;4990522;28;20383;-80
2023/01/16 06:44:39;;;;;;;31.70;18.83;;;;;;;0.61;100.00;62066.50;4989418;28;20412;-81
2023/01/16 06:47:06;;;;;;;31.50;17.73;;;;;;;0.74;100.00;62076.81;4989412;28;20247;-79
2023/01/16 06:49:33;;;;;;;26.98;14.82;;;;;;;0.73;100.00;62075.78;4989490;28;20208;-81
2023/01/16 06:52:01;;;;;;;24.88;14.32;;;;;;;0.77;100.00;62077.91;4990611;28;20220;-80
2023/01/16 06:54:29;;;;;;;24.25;14.75;;;;;;;0.90;100.00;62095.72;4990740;28;20204;-79
2023/01/16 06:56:57;;;;;;;19.02;12.68;;;;;;;1.03;100.00;62104.06;4991465;28;20517;-77
2023/01/16 06:59:24;;;;;;;30.13;17.65;;;;;;;1.14;100.00;62115.84;4992535;28;20208;-79
2023/01/16 07:01:53;;;;;;;38.85;22.17;;;;;;;1.21;100.00;62125.03;4992025;28;20224;-79
2023/01/16 07:04:19;;;;;;;36.25;23.20;;;;;;;1.41;100.00;62142.53;4990991;28;20220;-79
2023/01/16 07:06:50;;;;;;;32.00;17.20;;;;;;;1.46;100.00;62148.19;4990219;28;20220;-78
2023/01/16 07:09:17;;;;;;;36.00;19.50;;;;;;;1.61;100.00;62168.59;4990864;28;20212;-79
2023/01/16 07:11:47;;;;;;;32.75;18.02;;;;;;;1.68;100.00;62170.22;4993193;28;20228;-79
2023/01/16 07:22:38;;;;;;;45.47;26.70;;;;;;;1.18;100.00;62121.94;4988982;28;20551;-78
2023/01/16 07:25:10;;;;;;;47.88;26.60;;;;;;;1.62;100.00;62167.13;4992033;28;20231;-80
2023/01/16 07:27:41;;;;;;;49.50;24.75;;;;;;;1.85;100.00;62188.19;4993159;28;20224;-78
2023/01/16 07:30:12;;;;;;;45.75;26.17;;;;;;;1.89;100.00;62194.31;4990502;28;20262;-79
2023/01/16 07:32:40;;;;;;;40.33;24.30;;;;;;;2.09;100.00;62214.84;4989579;28;20291;-79
2023/01/16 07:35:08;;;;;;;43.75;23.63;;;;;;;2.23;100.00;62229.22;4991219;28;20204;-80
2023/01/16 07:37:35;;;;;;;37.95;21.70;;;;;;;2.30;100.00;62238.91;4990298;28;20404;-79
2023/01/16 07:40:03;;;;;;;41.13;22.42;;;;;;;2.44;100.00;62250.78;4990307;28;20196;-78
2023/01/16 07:42:30;;;;;;;42.75;22.40;;;;;;;2.54;100.00;62263.56;4988945;28;20223;-78
2023/01/16 07:44:59;;;;;;;42.72;22.67;;;;;;;2.69;100.00;62279.00;4991300;28;20271;-79
2023/01/16 07:47:28;;;;;;;46.40;23.13;;;;;;;2.83;100.00;62287.84;4989800;28;20257;-80
2023/01/16 07:49:56;;;;;;;47.20;26.70;;;;;;;2.71;100.00;62278.03;4991087;28;20273;-79
2023/01/16 07:52:23;;;;;;;44.05;23.90;;;;;;;2.66;100.00;62273.38;4990686;28;20227;-80
2023/01/16 07:54:53;;;;;;;48.00;25.65;;;;;;;2.20;100.00;62229.16;4989253;28;20513;-79
2023/01/16 07:57:19;;;;;;;41.60;25.20;;;;;;;2.26;100.00;62230.28;4988969;28;20259;-79
2023/01/16 07:59:47;;;;;;;38.65;23.30;;;;;;;2.40;100.00;62246.16;4988081;28;20251;-78
2023/01/16 08:02:15;;;;;;;41.65;23.23;;;;;;;2.63;100.00;62269.78;4989197;28;20226;-80
2023/01/16 08:04:42;;;;;;;41.47;22.35;;;;;;;2.65;100.00;62269.84;4989904;28;20228;-80
2023/01/16 08:07:11;;;;;;;40.80;22.83;;;;;;;2.19;100.00;62225.13;4972797;29;20233;-80
2023/01/16 08:09:38;;;;;;;53.15;24.15;;;;;;;1.94;100.00;62199.97;4970732;28;20209;-80
2023/01/16 08:12:10;;;;;;;53.40;24.77;;;;;;;2.02;100.00;62210.66;4972028;29;20288;-79
2023/01/16 08:14:38;;;;;;;57.50;26.00;;;;;;;2.32;100.00;62235.94;4983898;28;20219;-79
2023/01/16 08:17:06;;;;;;;45.78;25.52;;;;;;;2.38;100.00;62242.63;4991577;28;20252;-81
2023/01/16 08:19:43;;;;;;;51.13;26.27;;;;;;;2.58;100.00;62262.13;4991528;28;20215;-79
2023/01/16 08:22:10;;;;;;;58.60;28.13;;;;;;;2.80;100.00;62282.75;4993311;28;20278;-81
2023/01/16 08:24:37;;;;;;;59.58;27.65;;;;;;;2.83;100.00;62288.34;4993079;28;20199;-81
2023/01/16 08:27:03;;;;;;;60.90;28.77;;;;;;;2.34;100.00;62238.00;4990582;28;20235;-81
2023/01/16 08:29:34;;;;;;;56.22;27.30;;;;;;;2.33;100.00;62239.47;4991346;28;20204;-79
2023/01/16 08:32:02;;;;;;;57.67;27.13;;;;;;;2.61;100.00;62268.25;4990649;28;20227;-79
2023/01/16 08:34:28;;;;;;;47.55;25.55;;;;;;;2.90;100.00;62300.56;4989954;28;20211;-80
2023/01/16 08:37:01;;;;;;;51.05;24.80;;;;;;;2.83;100.00;62295.88;4985679;28;20523;-79
2023/01/16 08:39:28;;;;;;;48.15;26.33;;;;;;;2.93;100.00;62305.66;4970464;29;20207;-79
2023/01/16 08:53:01;;;;;;;57.13;27.35;;;;;;;3.21;100.00;62327.38;4979989;28;20207;-79
2023/01/16 08:55:29;;;;;;;54.45;26.92;;;;;;;3.23;100.00;62329.44;4991199;28;20196;-79
2023/01/16 08:57:58;;;;;;;47.30;25.58;;;;;;;3.20;100.00;62326.38;4989739;28;20299;-79
2023/01/16 09:00:28;;;;;;;54.10;26.60;;;;;;;3.23;100.00;62329.44;4987842;28;20231;-79
2023/01/16 09:02:58;;;;;;;48.90;26.83;;;;;;;3.38;100.00;62347.38;4988899;28;20219;-78
2023/01/16 09:05:25;;;;;;;40.85;22.50;;;;;;;3.57;100.00;62365.91;4989871;28;20214;-80
2023/01/16 09:07:55;;;;;;;36.00;19.63;;;;;;;3.92;100.00;62404.41;4990104;28;20254;-81
2023/01/16 09:10:24;;;;;;;35.72;20.13;;;;;;;3.80;100.00;62392.06;4990632;28;20497;-82
2023/01/16 09:15:47;;;;;;;27.45;16.08;;;;;;;3.77;100.00;62383.94;4993799;28;20276;-81
2023/01/16 09:18:14;;;;;;;28.60;16.50;;;;;;;3.95;100.00;62405.47;4993160;28;20238;-82
2023/01/16 09:20:41;;;;;;;30.40;17.30;;;;;;;3.78;100.00;62384.97;4993850;28;20200;-81
2023/01/16 09:23:08;;;;;;;36.25;19.00;;;;;;;4.19;100.00;62427.16;4993800;28;20689;-82
2023/01/16 09:25:36;;;;;;;38.75;21.17;;;;;;;4.29;100.00;62439.97;4992579;28;20220;-80
2023/01/16 09:28:12;;;;;;;39.25;18.90;;;;;;;4.01;100.00;62413.66;4990939;28;20208;-80
2023/01/16 09:30:39;;;;;;;33.65;19.65;;;;;;;4.14;100.00;62424.53;4992741;28;20474;-79
2023/01/16 09:33:06;;;;;;;32.97;18.98;;;;;;;4.36;100.00;62447.69;4992370;28;20222;-79
2023/01/16 09:35:33;;;;;;;32.55;17.75;;;;;;;4.42;100.00;62453.31;4994150;28;20204;-78
2023/01/16 09:38:00;;;;;;;29.00;18.13;;;;;;;4.38;100.00;62449.72;4994888;28;20236;-79
2023/01/16 09:40:27;;;;;;;32.28;18.85;;;;;;;4.30;100.00;62438.47;4993421;28;20200;-80
2023/01/16 09:45:51;;;;;;;25.92;16.05;;;;;;;4.38;100.00;62447.19;4992753;28;20175;-79
2023/01/16 09:48:25;;;;;;;35.53;17.83;;;;;;;4.55;100.00;62464.19;4991332;28;20226;-78
2023/01/16 09:50:56;;;;;;;34.95;16.75;;;;;;;4.14;100.00;62422.50;4992432;28;20226;-80
2023/01/16 09:59:33;;;;;;;25.55;15.23;;;;;;;3.96;100.00;62406.53;4986257;28;20223;-79
2023/01/16 10:02:10;;;;;;;27.73;15.88;;;;;;;4.19;100.00;62430.19;4984556;28;20423;-79
2023/01/16 10:04:37;;;;;;;22.08;13.77;;;;;;;4.14;100.00;62424.53;4991000;28;20187;-78
2023/01/16 10:07:21;;;;;;;26.20;13.93;;;;;;;4.26;100.00;62434.34;4992289;28;20227;-78
2023/01/16 10:10:00;;;;;;;29.75;16.27;;;;;;;4.39;100.00;62450.25;4990361;28;20222;-79
2023/01/16 10:12:33;;;;;;;26.75;15.82;;;;;;;4.66;100.00;62478.56;4988575;28;20224;-80
2023/01/16 10:15:13;;;;;;;26.90;16.55;;;;;;;4.64;100.00;62476.00;4990546;28;20438;-79
2023/01/16 10:17:50;;;;;;;29.83;19.00;;;;;;;4.68;100.00;62478.09;4991774;28;20239;-79
2023/01/16 10:20:48;;;;;;;29.23;17.75;;;;;;;4.92;100.00;62499.75;4993197;28;20216;-79
2023/01/16 10:23:38;;;;;;;32.25;18.92;;;;;;;4.13;100.00;62424.00;4950485;28;20216;-79
2023/01/16 10:26:09;;;;;;;27.88;17.60;;;;;;;4.59;100.00;62470.84;4971594;28;20221;-79
2023/01/16 10:28:50;;;;;;;32.33;17.55;;;;;;;4.86;100.00;62501.16;4980703;28;20230;-79
2023/01/16 10:31:26;;;;;;;25.42;14.48;;;;;;;4.80;100.00;62489.91;4991475;28;20330;-80
2023/01/16 10:33:59;;;;;;;23.60;15.52;;;;;;;4.98;100.00;62510.47;4991005;28;20227;-77
2023/01/16 10:36:30;;;;;;;21.98;13.60;;;;;;;4.95;100.00;62504.84;4993826;28;20220;-79
2023/01/16 10:39:00;;;;;;;8.10;6.80;;;;;;;4.85;97.18;62494.56;4991398;28;20278;-79
2023/01/16 10:50:06;;;;;;;11.40;7.95;;;;;;;4.59;96.30;62473.88;4990628;28;20569;-79
2023/01/16 10:52:34;;;;;;;9.15;7.15;;;;;;;4.84;96.87;62501.09;4990040;28;20255;-79
2023/01/16 10:55:02;;;;;;;8.45;6.63;;;;;;;4.88;95.47;62505.75;4989946;28;20204;-79
2023/01/16 10:57:30;;;;;;;15.27;7.03;;;;;;;5.15;95.80;62531.00;4989838;28;20243;-82
2023/01/16 11:00:03;;;;;;;16.65;8.90;;;;;;;5.05;96.86;62522.72;4990517;28;20200;-80
2023/01/16 11:02:34;;;;;;;26.75;13.05;;;;;;;4.94;100.00;62506.34;4990383;28;20230;-79
2023/01/16 11:05:02;;;;;;;25.30;13.52;;;;;;;5.23;100.00;62538.75;4991088;28;20204;-79
2023/01/16 11:07:31;;;;;;;17.40;12.25;;;;;;;5.37;99.13;62548.63;4990635;28;20275;-78
2023/01/16 11:10:00;;;;;;;27.33;14.60;;;;;;;5.32;100.00;62548.53;4990660;28;20212;-79
2023/01/16 11:18:29;;;;;;;18.13;11.43;;;;;;;5.98;94.66;62615.50;4990940;28;20211;-78
2023/01/16 11:20:57;;;;;;;22.85;11.07;;;;;;;6.00;94.58;62615.06;4990291;28;20227;-80
2023/01/16 11:23:26;;;;;;;13.77;10.10;;;;;;;6.12;93.36;62627.41;4989949;28;20276;-79
2023/01/16 11:25:57;;;;;;;13.43;7.53;;;;;;;5.69;90.09;62581.56;4990375;28;20238;-79
2023/01/16 11:28:27;;;;;;;6.30;5.65;;;;;;;5.72;87.44;62579.13;4991019;28;20208;-79
2023/01/16 11:30:56;;;;;;;6.60;5.95;;;;;;;5.73;87.62;62590.25;4989749;28;20228;-79
2023/01/16 11:33:28;;;;;;;8.35;6.22;;;;;;;5.96;87.28;62611.44;4990556;28;20240;-78
2023/01/16 11:35:59;;;;;;;11.18;7.85;;;;;;;5.93;88.33;62608.34;4988057;28;20224;-78
2023/01/16 11:38:29;;;;;;;10.18;8.30;;;;;;;6.03;87.49;62615.59;4990744;28;20240;-79
2023/01/16 11:40:58;;;;;;;13.93;8.98;;;;;;;6.27;87.81;62645.94;4991214;28;20267;-79
2023/01/16 11:46:32;;;;;;;11.07;7.38;;;;;;;6.40;85.36;62656.78;4990534;28;20247;-79
2023/01/16 11:49:03;;;;;;;8.50;6.88;;;;;;;6.64;85.54;62686.09;4989311;28;20214;-80
2023/01/16 11:51:32;;;;;;;11.00;7.93;;;;;;;6.84;82.74;62701.66;4990068;28;20228;-79
2023/01/16 11:54:01;;;;;;;14.90;9.25;;;;;;;6.55;85.95;62669.22;4971703;29;20397;-78
2023/01/16 11:56:43;;;;;;;14.55;10.18;;;;;;;6.74;87.15;62691.88;4970766;28;20224;-78
2023/01/16 11:59:38;;;;;;;12.85;8.65;;;;;;;6.76;84.56;62695.94;4969613;29;20236;-79
2023/01/16 12:02:20;;;;;;;16.80;9.73;;;;;;;6.48;87.00;62660.00;4957647;29;20248;-79
2023/01/16 12:07:46;;;;;;;11.18;7.85;;;;;;;6.56;85.68;62670.75;4990542;28;20425;-79
2023/01/16 12:10:29;;;;;;;10.20;8.95;;;;;;;6.44;84.40;62657.88;4988770;28;20271;-78
2023/01/16 12:15:59;;;;;;;27.23;13.98;;;;;;;6.15;89.72;62630.50;4989593;28;20202;-79
2023/01/16 12:18:35;;;;;;;25.08;14.30;;;;;;;6.33;92.29;62649.06;4990921;28;20240;-80
2023/01/16 12:21:09;;;;;;;27.08;15.18;;;;;;;6.25;91.05;62643.84;4989651;28;20231;-78
2023/01/16 12:24:04;;;;;;;23.13;14.48;;;;;;;6.20;93.54;62641.22;4975698;28;20238;-78
2023/01/16 12:26:36;;;;;;;26.33;16.00;;;;;;;6.50;93.17;62666.59;4990832;28;20232;-79
2023/01/16 12:29:18;;;;;;;28.00;16.23;;;;;;;6.74;90.99;62694.41;4990623;28;20198;-80
2023/01/16 12:31:57;;;;;;;28.98;15.20;;;;;;;6.64;88.66;62678.50;4971785;28;20254;-79
2023/01/16 12:34:54;;;;;;;22.27;13.57;;;;;;;6.35;89.77;62651.63;4970918;29;20205;-79
2023/01/16 12:37:50;;;;;;;27.20;13.73;;;;;;;6.59;88.80;62678.41;4970646;29;20521;-80